Terminal Aerodrome Forecast
Issued by NWS Corpus Christi, TX

Home | Current Version | Previous Version | Text Only | Print | Product List | Glossary On
Versions: 1 2 3 4 5 6 7 8 9 10 11 12 13 14 15 16 17 18 19 20
000
FTUS44 KCRP 030500
TAFCRP
TAF
KCRP 030528Z 0306/0406 03005KT 1/4SM -DZ FG VV002
     FM031300 12005KT 1/4SM -DZ FG VV001
     FM031700 16010KT 3SM -DZ BR OVC007
     FM032000 15016KT 6SM BR BKN015
     FM040200 15012KT 3SM BR OVC008=

USA.gov is the U.S. government's official web portal to all federal, state and local government web resources and services.